sensor_id;sensor_type;location;lat;lon;timestamp;temperature;humidity
55785;DHT22;41709;52.536;5.688;2023-05-23T00:00:57;13.30;93.50
55785;DHT22;41709;52.536;5.688;2023-05-23T00:03:24;13.30;93.60
55785;DHT22;41709;52.536;5.688;2023-05-23T00:05:50;13.20;93.60
55785;DHT22;41709;52.536;5.688;2023-05-23T00:08:16;13.10;93.70
55785;DHT22;41709;52.536;5.688;2023-05-23T00:10:42;13.00;93.80
55785;DHT22;41709;52.536;5.688;2023-05-23T00:13:08;13.00;94.00
55785;DHT22;41709;52.536;5.688;2023-05-23T00:15:34;13.00;94.10
55785;DHT22;41709;52.536;5.688;2023-05-23T00:18:02;13.00;94.20
55785;DHT22;41709;52.536;5.688;2023-05-23T00:20:28;13.10;94.20
55785;DHT22;41709;52.536;5.688;2023-05-23T00:22:54;13.00;94.10
55785;DHT22;41709;52.536;5.688;2023-05-23T00:25:23;13.00;94.30
55785;DHT22;41709;52.536;5.688;2023-05-23T00:27:49;12.90;94.50
55785;DHT22;41709;52.536;5.688;2023-05-23T00:30:14;12.80;94.50
55785;DHT22;41709;52.536;5.688;2023-05-23T00:32:40;12.70;94.70
55785;DHT22;41709;52.536;5.688;2023-05-23T00:35:06;12.80;94.80
55785;DHT22;41709;52.536;5.688;2023-05-23T00:37:32;12.80;94.80
55785;DHT22;41709;52.536;5.688;2023-05-23T00:39:58;12.90;94.50
55785;DHT22;41709;52.536;5.688;2023-05-23T00:42:24;12.80;94.60
55785;DHT22;41709;52.536;5.688;2023-05-23T00:44:50;12.80;94.60
55785;DHT22;41709;52.536;5.688;2023-05-23T00:47:15;12.80;94.70
55785;DHT22;41709;52.536;5.688;2023-05-23T00:49:42;12.70;94.80
55785;DHT22;41709;52.536;5.688;2023-05-23T00:52:08;12.80;94.70
55785;DHT22;41709;52.536;5.688;2023-05-23T00:54:35;12.80;94.60
55785;DHT22;41709;52.536;5.688;2023-05-23T00:57:01;12.90;94.50
55785;DHT22;41709;52.536;5.688;2023-05-23T00:59:27;12.90;94.40
55785;DHT22;41709;52.536;5.688;2023-05-23T01:01:55;12.90;94.50
55785;DHT22;41709;52.536;5.688;2023-05-23T01:04:22;12.90;94.30
55785;DHT22;41709;52.536;5.688;2023-05-23T01:06:52;12.90;94.40
55785;DHT22;41709;52.536;5.688;2023-05-23T01:09:18;12.90;94.50
55785;DHT22;41709;52.536;5.688;2023-05-23T01:12:00;12.90;94.40
55785;DHT22;41709;52.536;5.688;2023-05-23T01:14:35;12.90;94.40
55785;DHT22;41709;52.536;5.688;2023-05-23T01:17:09;12.90;94.30
55785;DHT22;41709;52.536;5.688;2023-05-23T01:22:20;12.90;94.00
55785;DHT22;41709;52.536;5.688;2023-05-23T01:30:12;12.90;93.90
55785;DHT22;41709;52.536;5.688;2023-05-23T01:32:39;13.00;93.80
55785;DHT22;41709;52.536;5.688;2023-05-23T01:35:05;13.00;93.70
55785;DHT22;41709;52.536;5.688;2023-05-23T01:37:30;13.00;93.70
55785;DHT22;41709;52.536;5.688;2023-05-23T01:39:56;13.00;93.70
55785;DHT22;41709;52.536;5.688;2023-05-23T01:42:21;12.90;93.60
55785;DHT22;41709;52.536;5.688;2023-05-23T01:44:47;12.90;93.60
55785;DHT22;41709;52.536;5.688;2023-05-23T01:47:14;12.80;93.70
55785;DHT22;41709;52.536;5.688;2023-05-23T01:49:40;12.80;93.60
55785;DHT22;41709;52.536;5.688;2023-05-23T01:52:09;12.80;93.50
55785;DHT22;41709;52.536;5.688;2023-05-23T01:54:36;12.80;93.50
55785;DHT22;41709;52.536;5.688;2023-05-23T01:57:04;12.70;93.50
55785;DHT22;41709;52.536;5.688;2023-05-23T01:59:29;12.60;93.70
55785;DHT22;41709;52.536;5.688;2023-05-23T02:01:55;12.70;93.70
55785;DHT22;41709;52.536;5.688;2023-05-23T02:04:21;12.80;93.60
55785;DHT22;41709;52.536;5.688;2023-05-23T02:06:46;12.70;93.60
55785;DHT22;41709;52.536;5.688;2023-05-23T02:09:12;12.70;93.60
55785;DHT22;41709;52.536;5.688;2023-05-23T02:11:37;12.70;93.50
55785;DHT22;41709;52.536;5.688;2023-05-23T02:14:03;12.70;93.30
55785;DHT22;41709;52.536;5.688;2023-05-23T02:16:28;12.80;93.20
55785;DHT22;41709;52.536;5.688;2023-05-23T02:18:54;12.80;93.20
55785;DHT22;41709;52.536;5.688;2023-05-23T02:21:21;12.80;93.30
55785;DHT22;41709;52.536;5.688;2023-05-23T02:23:47;12.80;93.30
55785;DHT22;41709;52.536;5.688;2023-05-23T02:26:13;12.90;93.10
55785;DHT22;41709;52.536;5.688;2023-05-23T02:28:38;12.90;93.10
55785;DHT22;41709;52.536;5.688;2023-05-23T02:31:04;13.10;92.90
55785;DHT22;41709;52.536;5.688;2023-05-23T02:33:30;13.00;92.70
55785;DHT22;41709;52.536;5.688;2023-05-23T02:35:55;13.10;92.50
55785;DHT22;41709;52.536;5.688;2023-05-23T02:38:21;13.10;92.60
55785;DHT22;41709;52.536;5.688;2023-05-23T02:40:46;13.10;92.30
55785;DHT22;41709;52.536;5.688;2023-05-23T02:43:14;13.10;92.00
55785;DHT22;41709;52.536;5.688;2023-05-23T02:45:40;13.10;91.90
55785;DHT22;41709;52.536;5.688;2023-05-23T02:48:05;13.10;91.90
55785;DHT22;41709;52.536;5.688;2023-05-23T02:50:31;13.10;91.90
55785;DHT22;41709;52.536;5.688;2023-05-23T02:52:56;13.20;92.00
55785;DHT22;41709;52.536;5.688;2023-05-23T02:55:22;13.20;92.10
55785;DHT22;41709;52.536;5.688;2023-05-23T02:57:47;13.10;92.30
55785;DHT22;41709;52.536;5.688;2023-05-23T03:00:13;13.10;92.40
55785;DHT22;41709;52.536;5.688;2023-05-23T03:02:39;13.10;92.30
55785;DHT22;41709;52.536;5.688;2023-05-23T03:05:06;12.90;92.10
55785;DHT22;41709;52.536;5.688;2023-05-23T03:07:31;12.90;92.10
55785;DHT22;41709;52.536;5.688;2023-05-23T03:09:58;12.80;92.20
55785;DHT22;41709;52.536;5.688;2023-05-23T03:12:24;12.80;92.10
55785;DHT22;41709;52.536;5.688;2023-05-23T03:14:49;12.80;92.20
55785;DHT22;41709;52.536;5.688;2023-05-23T03:17:15;12.80;92.00
55785;DHT22;41709;52.536;5.688;2023-05-23T03:19:40;12.80;91.90
55785;DHT22;41709;52.536;5.688;2023-05-23T03:22:06;12.80;91.70
55785;DHT22;41709;52.536;5.688;2023-05-23T03:24:31;12.80;91.80
55785;DHT22;41709;52.536;5.688;2023-05-23T03:26:57;12.80;91.70
55785;DHT22;41709;52.536;5.688;2023-05-23T03:29:22;12.70;91.70
55785;DHT22;41709;52.536;5.688;2023-05-23T03:31:48;12.60;91.80
55785;DHT22;41709;52.536;5.688;2023-05-23T03:34:13;12.60;91.80
55785;DHT22;41709;52.536;5.688;2023-05-23T03:36:39;12.70;91.60
55785;DHT22;41709;52.536;5.688;2023-05-23T03:39:05;12.70;91.40
55785;DHT22;41709;52.536;5.688;2023-05-23T03:41:31;12.60;91.20
55785;DHT22;41709;52.536;5.688;2023-05-23T03:43:56;12.60;91.30
55785;DHT22;41709;52.536;5.688;2023-05-23T03:46:22;12.60;91.50
55785;DHT22;41709;52.536;5.688;2023-05-23T03:48:47;12.50;91.70
55785;DHT22;41709;52.536;5.688;2023-05-23T03:51:13;12.60;91.80
55785;DHT22;41709;52.536;5.688;2023-05-23T03:53:39;12.50;91.70
55785;DHT22;41709;52.536;5.688;2023-05-23T03:56:05;12.60;91.70
55785;DHT22;41709;52.536;5.688;2023-05-23T03:58:30;12.70;91.70
55785;DHT22;41709;52.536;5.688;2023-05-23T04:00:56;12.70;91.60
55785;DHT22;41709;52.536;5.688;2023-05-23T04:03:22;12.70;91.30
55785;DHT22;41709;52.536;5.688;2023-05-23T04:05:48;12.60;91.30
55785;DHT22;41709;52.536;5.688;2023-05-23T04:08:14;12.60;91.40
55785;DHT22;41709;52.536;5.688;2023-05-23T04:10:40;12.40;91.50
55785;DHT22;41709;52.536;5.688;2023-05-23T04:13:05;12.40;91.60
55785;DHT22;41709;52.536;5.688;2023-05-23T04:15:31;12.40;91.70
55785;DHT22;41709;52.536;5.688;2023-05-23T04:17:58;12.30;91.90
55785;DHT22;41709;52.536;5.688;2023-05-23T04:20:24;12.20;92.10
55785;DHT22;41709;52.536;5.688;2023-05-23T04:22:50;12.20;92.00
55785;DHT22;41709;52.536;5.688;2023-05-23T04:25:15;12.20;91.80
55785;DHT22;41709;52.536;5.688;2023-05-23T04:27:43;12.30;91.70
55785;DHT22;41709;52.536;5.688;2023-05-23T04:30:08;12.20;91.30
55785;DHT22;41709;52.536;5.688;2023-05-23T04:32:35;12.20;91.70
55785;DHT22;41709;52.536;5.688;2023-05-23T04:35:00;12.20;91.30
55785;DHT22;41709;52.536;5.688;2023-05-23T04:37:29;12.10;91.40
55785;DHT22;41709;52.536;5.688;2023-05-23T04:39:57;12.10;91.40
55785;DHT22;41709;52.536;5.688;2023-05-23T04:42:24;12.00;91.50
55785;DHT22;41709;52.536;5.688;2023-05-23T04:44:50;12.00;91.50
55785;DHT22;41709;52.536;5.688;2023-05-23T04:47:16;12.00;91.60
55785;DHT22;41709;52.536;5.688;2023-05-23T04:49:42;12.00;91.60
55785;DHT22;41709;52.536;5.688;2023-05-23T04:52:07;11.90;91.30
55785;DHT22;41709;52.536;5.688;2023-05-23T04:54:33;12.00;91.30
55785;DHT22;41709;52.536;5.688;2023-05-23T04:56:59;11.90;91.20
55785;DHT22;41709;52.536;5.688;2023-05-23T04:59:24;11.90;91.20
55785;DHT22;41709;52.536;5.688;2023-05-23T05:01:51;11.90;91.30
55785;DHT22;41709;52.536;5.688;2023-05-23T05:04:16;11.90;91.20
55785;DHT22;41709;52.536;5.688;2023-05-23T05:06:42;11.90;91.40
55785;DHT22;41709;52.536;5.688;2023-05-23T05:09:07;11.80;91.00
55785;DHT22;41709;52.536;5.688;2023-05-23T05:11:33;11.80;90.80
55785;DHT22;41709;52.536;5.688;2023-05-23T05:13:58;11.80;90.40
55785;DHT22;41709;52.536;5.688;2023-05-23T05:16:24;11.70;90.40
55785;DHT22;41709;52.536;5.688;2023-05-23T05:18:49;11.70;90.30
55785;DHT22;41709;52.536;5.688;2023-05-23T05:21:15;11.60;90.10
55785;DHT22;41709;52.536;5.688;2023-05-23T05:23:41;11.70;90.10
55785;DHT22;41709;52.536;5.688;2023-05-23T05:26:08;11.60;90.10
55785;DHT22;41709;52.536;5.688;2023-05-23T05:28:33;11.60;89.80
55785;DHT22;41709;52.536;5.688;2023-05-23T05:30:59;11.60;89.20
55785;DHT22;41709;52.536;5.688;2023-05-23T05:33:29;11.60;88.10
55785;DHT22;41709;52.536;5.688;2023-05-23T05:36:02;11.50;88.60
55785;DHT22;41709;52.536;5.688;2023-05-23T05:38:28;11.50;89.10
55785;DHT22;41709;52.536;5.688;2023-05-23T05:40:54;11.60;89.50
55785;DHT22;41709;52.536;5.688;2023-05-23T05:43:19;11.50;89.50
55785;DHT22;41709;52.536;5.688;2023-05-23T05:45:45;11.50;89.70
55785;DHT22;41709;52.536;5.688;2023-05-23T05:48:11;11.50;89.00
55785;DHT22;41709;52.536;5.688;2023-05-23T05:50:36;11.40;88.40
55785;DHT22;41709;52.536;5.688;2023-05-23T05:53:02;11.40;88.50
55785;DHT22;41709;52.536;5.688;2023-05-23T05:55:28;11.40;87.70
55785;DHT22;41709;52.536;5.688;2023-05-23T05:57:53;11.40;87.20
55785;DHT22;41709;52.536;5.688;2023-05-23T06:00:19;11.40;87.30
55785;DHT22;41709;52.536;5.688;2023-05-23T06:02:46;11.50;86.80
55785;DHT22;41709;52.536;5.688;2023-05-23T06:05:13;11.50;87.00
55785;DHT22;41709;52.536;5.688;2023-05-23T06:07:43;11.50;87.00
55785;DHT22;41709;52.536;5.688;2023-05-23T06:10:09;11.50;87.00
55785;DHT22;41709;52.536;5.688;2023-05-23T06:12:38;11.40;86.90
55785;DHT22;41709;52.536;5.688;2023-05-23T06:15:08;11.50;87.10
55785;DHT22;41709;52.536;5.688;2023-05-23T06:17:34;11.50;86.90
55785;DHT22;41709;52.536;5.688;2023-05-23T06:19:59;11.50;86.80
55785;DHT22;41709;52.536;5.688;2023-05-23T06:22:25;11.60;87.10
55785;DHT22;41709;52.536;5.688;2023-05-23T06:24:51;11.50;87.10
55785;DHT22;41709;52.536;5.688;2023-05-23T06:27:16;11.50;87.40
55785;DHT22;41709;52.536;5.688;2023-05-23T06:29:42;11.50;88.10
55785;DHT22;41709;52.536;5.688;2023-05-23T06:32:07;11.40;88.50
55785;DHT22;41709;52.536;5.688;2023-05-23T06:34:33;11.40;88.30
55785;DHT22;41709;52.536;5.688;2023-05-23T06:36:58;11.40;88.50
55785;DHT22;41709;52.536;5.688;2023-05-23T06:39:24;11.40;88.40
55785;DHT22;41709;52.536;5.688;2023-05-23T06:41:49;11.40;89.30
55785;DHT22;41709;52.536;5.688;2023-05-23T06:44:15;11.40;88.80
55785;DHT22;41709;52.536;5.688;2023-05-23T06:46:45;11.30;89.50
55785;DHT22;41709;52.536;5.688;2023-05-23T06:49:10;11.30;89.80
55785;DHT22;41709;52.536;5.688;2023-05-23T06:51:36;11.30;89.50
55785;DHT22;41709;52.536;5.688;2023-05-23T06:54:02;11.30;89.50
55785;DHT22;41709;52.536;5.688;2023-05-23T06:56:27;11.30;89.90
55785;DHT22;41709;52.536;5.688;2023-05-23T06:58:53;11.40;89.40
55785;DHT22;41709;52.536;5.688;2023-05-23T07:01:18;11.30;88.20
55785;DHT22;41709;52.536;5.688;2023-05-23T07:03:44;11.30;87.70
55785;DHT22;41709;52.536;5.688;2023-05-23T07:06:10;11.40;88.30
55785;DHT22;41709;52.536;5.688;2023-05-23T07:08:36;11.40;87.10
55785;DHT22;41709;52.536;5.688;2023-05-23T07:11:02;11.40;84.80
55785;DHT22;41709;52.536;5.688;2023-05-23T07:13:28;11.50;84.90
55785;DHT22;41709;52.536;5.688;2023-05-23T07:15:54;11.50;84.50
55785;DHT22;41709;52.536;5.688;2023-05-23T07:18:20;11.60;84.60
55785;DHT22;41709;52.536;5.688;2023-05-23T07:20:45;11.70;83.60
55785;DHT22;41709;52.536;5.688;2023-05-23T07:23:11;11.60;83.60
55785;DHT22;41709;52.536;5.688;2023-05-23T07:25:36;11.70;82.40
55785;DHT22;41709;52.536;5.688;2023-05-23T07:28:04;11.70;81.90
55785;DHT22;41709;52.536;5.688;2023-05-23T07:30:30;11.60;82.20
55785;DHT22;41709;52.536;5.688;2023-05-23T07:32:55;11.70;82.00
55785;DHT22;41709;52.536;5.688;2023-05-23T07:35:21;11.90;81.00
55785;DHT22;41709;52.536;5.688;2023-05-23T07:37:53;11.90;81.20
55785;DHT22;41709;52.536;5.688;2023-05-23T07:40:20;11.90;79.80
55785;DHT22;41709;52.536;5.688;2023-05-23T07:42:46;12.00;80.00
55785;DHT22;41709;52.536;5.688;2023-05-23T07:45:12;12.10;80.00
55785;DHT22;41709;52.536;5.688;2023-05-23T07:47:37;12.00;79.70
55785;DHT22;41709;52.536;5.688;2023-05-23T07:50:04;12.00;79.20
55785;DHT22;41709;52.536;5.688;2023-05-23T07:52:29;12.00;79.60
55785;DHT22;41709;52.536;5.688;2023-05-23T07:54:56;11.90;80.20
55785;DHT22;41709;52.536;5.688;2023-05-23T07:57:22;11.90;79.00
55785;DHT22;41709;52.536;5.688;2023-05-23T07:59:49;11.80;78.40
55785;DHT22;41709;52.536;5.688;2023-05-23T08:02:15;11.80;78.40
55785;DHT22;41709;52.536;5.688;2023-05-23T08:04:41;11.80;80.10
55785;DHT22;41709;52.536;5.688;2023-05-23T08:07:07;11.80;77.90
55785;DHT22;41709;52.536;5.688;2023-05-23T08:09:34;11.80;77.70
55785;DHT22;41709;52.536;5.688;2023-05-23T08:12:00;11.80;78.10
55785;DHT22;41709;52.536;5.688;2023-05-23T08:14:25;11.90;79.50
55785;DHT22;41709;52.536;5.688;2023-05-23T08:16:51;11.90;80.10
55785;DHT22;41709;52.536;5.688;2023-05-23T08:19:16;11.90;79.70
55785;DHT22;41709;52.536;5.688;2023-05-23T08:21:42;11.90;79.10
55785;DHT22;41709;52.536;5.688;2023-05-23T08:24:07;12.00;78.30
55785;DHT22;41709;52.536;5.688;2023-05-23T08:26:33;11.90;76.20
55785;DHT22;41709;52.536;5.688;2023-05-23T08:29:00;11.90;76.50
55785;DHT22;41709;52.536;5.688;2023-05-23T08:31:27;11.90;76.90
55785;DHT22;41709;52.536;5.688;2023-05-23T08:33:52;11.90;77.70
55785;DHT22;41709;52.536;5.688;2023-05-23T08:36:18;12.00;78.30
55785;DHT22;41709;52.536;5.688;2023-05-23T08:38:43;12.00;77.80
55785;DHT22;41709;52.536;5.688;2023-05-23T08:41:17;12.00;77.10
55785;DHT22;41709;52.536;5.688;2023-05-23T08:43:43;12.00;78.00
55785;DHT22;41709;52.536;5.688;2023-05-23T08:46:09;12.10;78.50
55785;DHT22;41709;52.536;5.688;2023-05-23T08:48:37;12.10;78.10
55785;DHT22;41709;52.536;5.688;2023-05-23T08:51:03;12.10;78.00
55785;DHT22;41709;52.536;5.688;2023-05-23T08:53:30;12.20;76.50
55785;DHT22;41709;52.536;5.688;2023-05-23T08:55:57;12.20;75.30
55785;DHT22;41709;52.536;5.688;2023-05-23T08:58:28;12.20;76.00
55785;DHT22;41709;52.536;5.688;2023-05-23T09:00:54;12.20;76.40
55785;DHT22;41709;52.536;5.688;2023-05-23T09:03:21;12.40;75.00
55785;DHT22;41709;52.536;5.688;2023-05-23T09:05:47;12.40;75.30
55785;DHT22;41709;52.536;5.688;2023-05-23T09:08:14;12.40;75.00
55785;DHT22;41709;52.536;5.688;2023-05-23T09:10:41;12.40;74.60
55785;DHT22;41709;52.536;5.688;2023-05-23T09:13:06;12.50;75.70
55785;DHT22;41709;52.536;5.688;2023-05-23T09:15:34;12.50;76.50
55785;DHT22;41709;52.536;5.688;2023-05-23T09:18:00;12.50;76.30
55785;DHT22;41709;52.536;5.688;2023-05-23T09:20:29;12.60;75.40
55785;DHT22;41709;52.536;5.688;2023-05-23T09:22:55;12.70;75.20
55785;DHT22;41709;52.536;5.688;2023-05-23T09:25:21;12.80;73.80
55785;DHT22;41709;52.536;5.688;2023-05-23T09:27:46;12.90;74.10
55785;DHT22;41709;52.536;5.688;2023-05-23T09:30:12;13.10;75.00
55785;DHT22;41709;52.536;5.688;2023-05-23T09:32:38;13.10;73.70
55785;DHT22;41709;52.536;5.688;2023-05-23T09:35:06;13.10;73.20
55785;DHT22;41709;52.536;5.688;2023-05-23T09:37:43;13.10;73.80
55785;DHT22;41709;52.536;5.688;2023-05-23T09:40:14;13.20;73.90
55785;DHT22;41709;52.536;5.688;2023-05-23T09:42:45;13.20;73.00
55785;DHT22;41709;52.536;5.688;2023-05-23T09:45:12;13.30;71.60
55785;DHT22;41709;52.536;5.688;2023-05-23T09:47:38;13.40;71.80
55785;DHT22;41709;52.536;5.688;2023-05-23T09:50:04;13.30;71.50
55785;DHT22;41709;52.536;5.688;2023-05-23T09:52:36;13.40;72.00
55785;DHT22;41709;52.536;5.688;2023-05-23T09:55:05;13.30;71.20
55785;DHT22;41709;52.536;5.688;2023-05-23T09:57:34;13.30;71.70
55785;DHT22;41709;52.536;5.688;2023-05-23T10:00:04;13.30;71.30
55785;DHT22;41709;52.536;5.688;2023-05-23T10:08:23;13.30;74.30
55785;DHT22;41709;52.536;5.688;2023-05-23T10:13:43;13.30;71.80
55785;DHT22;41709;52.536;5.688;2023-05-23T10:16:20;13.20;71.60
55785;DHT22;41709;52.536;5.688;2023-05-23T10:19:09;13.30;70.80
55785;DHT22;41709;52.536;5.688;2023-05-23T10:21:43;13.30;70.20
55785;DHT22;41709;52.536;5.688;2023-05-23T10:24:11;13.30;70.70
55785;DHT22;41709;52.536;5.688;2023-05-23T10:26:37;13.40;70.30
55785;DHT22;41709;52.536;5.688;2023-05-23T10:29:05;13.40;71.10
55785;DHT22;41709;52.536;5.688;2023-05-23T10:31:31;13.40;70.10
55785;DHT22;41709;52.536;5.688;2023-05-23T10:34:33;13.40;71.00
55785;DHT22;41709;52.536;5.688;2023-05-23T10:37:02;13.50;69.50
55785;DHT22;41709;52.536;5.688;2023-05-23T10:42:03;13.50;70.30
55785;DHT22;41709;52.536;5.688;2023-05-23T10:44:32;13.30;70.00
55785;DHT22;41709;52.536;5.688;2023-05-23T10:47:02;13.30;69.70
55785;DHT22;41709;52.536;5.688;2023-05-23T10:49:51;13.30;70.70
55785;DHT22;41709;52.536;5.688;2023-05-23T10:52:16;13.40;70.20
55785;DHT22;41709;52.536;5.688;2023-05-23T10:54:46;13.40;69.40
55785;DHT22;41709;52.536;5.688;2023-05-23T10:57:15;13.40;68.30
55785;DHT22;41709;52.536;5.688;2023-05-23T10:59:41;13.50;69.40
55785;DHT22;41709;52.536;5.688;2023-05-23T11:02:13;13.60;68.50
55785;DHT22;41709;52.536;5.688;2023-05-23T11:04:41;13.60;69.20
55785;DHT22;41709;52.536;5.688;2023-05-23T11:07:29;13.60;70.10
55785;DHT22;41709;52.536;5.688;2023-05-23T11:10:15;13.60;71.30
55785;DHT22;41709;52.536;5.688;2023-05-23T11:12:43;13.60;70.10
55785;DHT22;41709;52.536;5.688;2023-05-23T11:15:20;13.60;68.50
55785;DHT22;41709;52.536;5.688;2023-05-23T11:17:55;13.60;68.10
55785;DHT22;41709;52.536;5.688;2023-05-23T11:20:23;13.60;69.00
55785;DHT22;41709;52.536;5.688;2023-05-23T11:23:01;13.60;69.30
55785;DHT22;41709;52.536;5.688;2023-05-23T11:25:54;13.60;69.10
55785;DHT22;41709;52.536;5.688;2023-05-23T11:28:21;13.50;68.30
55785;DHT22;41709;52.536;5.688;2023-05-23T11:30:48;13.50;67.30
55785;DHT22;41709;52.536;5.688;2023-05-23T11:33:15;13.60;67.50
55785;DHT22;41709;52.536;5.688;2023-05-23T11:35:41;13.70;66.90
55785;DHT22;41709;52.536;5.688;2023-05-23T11:38:08;13.80;66.50
55785;DHT22;41709;52.536;5.688;2023-05-23T11:43:02;13.80;65.90
55785;DHT22;41709;52.536;5.688;2023-05-23T11:45:29;13.80;65.60
55785;DHT22;41709;52.536;5.688;2023-05-23T11:47:56;13.80;66.20
55785;DHT22;41709;52.536;5.688;2023-05-23T11:50:22;13.80;65.20
55785;DHT22;41709;52.536;5.688;2023-05-23T11:52:49;13.70;65.80
55785;DHT22;41709;52.536;5.688;2023-05-23T11:55:21;13.80;66.00
55785;DHT22;41709;52.536;5.688;2023-05-23T11:57:48;13.80;65.80
55785;DHT22;41709;52.536;5.688;2023-05-23T12:00:14;13.80;66.80
55785;DHT22;41709;52.536;5.688;2023-05-23T12:02:41;13.80;66.90
55785;DHT22;41709;52.536;5.688;2023-05-23T12:05:12;13.80;67.30
55785;DHT22;41709;52.536;5.688;2023-05-23T12:07:42;13.70;69.10
55785;DHT22;41709;52.536;5.688;2023-05-23T12:10:09;13.60;68.30
55785;DHT22;41709;52.536;5.688;2023-05-23T12:12:35;13.60;68.10
55785;DHT22;41709;52.536;5.688;2023-05-23T12:15:01;13.60;66.80
55785;DHT22;41709;52.536;5.688;2023-05-23T12:17:27;13.70;66.90
55785;DHT22;41709;52.536;5.688;2023-05-23T12:19:52;13.70;66.50
55785;DHT22;41709;52.536;5.688;2023-05-23T12:22:24;13.70;67.20
55785;DHT22;41709;52.536;5.688;2023-05-23T12:24:54;13.70;66.90
55785;DHT22;41709;52.536;5.688;2023-05-23T12:27:32;13.80;68.60
55785;DHT22;41709;52.536;5.688;2023-05-23T12:30:15;13.90;67.70
55785;DHT22;41709;52.536;5.688;2023-05-23T12:32:42;13.90;67.90
55785;DHT22;41709;52.536;5.688;2023-05-23T12:35:09;13.90;68.90
55785;DHT22;41709;52.536;5.688;2023-05-23T12:37:40;13.80;67.40
55785;DHT22;41709;52.536;5.688;2023-05-23T12:40:23;13.70;67.40
55785;DHT22;41709;52.536;5.688;2023-05-23T12:42:54;13.70;66.90
55785;DHT22;41709;52.536;5.688;2023-05-23T12:45:22;13.80;65.80
55785;DHT22;41709;52.536;5.688;2023-05-23T12:47:47;13.70;66.10
55785;DHT22;41709;52.536;5.688;2023-05-23T12:50:13;13.70;64.00
55785;DHT22;41709;52.536;5.688;2023-05-23T12:52:39;13.70;65.10
55785;DHT22;41709;52.536;5.688;2023-05-23T12:55:05;13.60;65.30
55785;DHT22;41709;52.536;5.688;2023-05-23T12:57:33;13.60;62.10
55785;DHT22;41709;52.536;5.688;2023-05-23T12:59:59;13.50;65.00
55785;DHT22;41709;52.536;5.688;2023-05-23T13:02:24;13.50;64.70
55785;DHT22;41709;52.536;5.688;2023-05-23T13:04:51;13.60;65.30
55785;DHT22;41709;52.536;5.688;2023-05-23T13:07:16;13.60;66.00
55785;DHT22;41709;52.536;5.688;2023-05-23T13:09:42;13.70;68.50
55785;DHT22;41709;52.536;5.688;2023-05-23T13:12:08;13.60;70.00
55785;DHT22;41709;52.536;5.688;2023-05-23T13:14:33;13.50;69.00
55785;DHT22;41709;52.536;5.688;2023-05-23T13:16:59;13.40;70.10
55785;DHT22;41709;52.536;5.688;2023-05-23T13:19:24;13.40;68.80
55785;DHT22;41709;52.536;5.688;2023-05-23T13:21:50;13.50;68.20
55785;DHT22;41709;52.536;5.688;2023-05-23T13:24:15;13.50;66.30
55785;DHT22;41709;52.536;5.688;2023-05-23T13:26:41;13.60;67.20
55785;DHT22;41709;52.536;5.688;2023-05-23T13:29:06;13.70;68.90
55785;DHT22;41709;52.536;5.688;2023-05-23T13:31:32;13.70;68.70
55785;DHT22;41709;52.536;5.688;2023-05-23T13:33:57;13.70;68.10
55785;DHT22;41709;52.536;5.688;2023-05-23T13:36:23;13.70;66.00
55785;DHT22;41709;52.536;5.688;2023-05-23T13:38:49;13.70;66.00
55785;DHT22;41709;52.536;5.688;2023-05-23T13:41:15;13.70;65.60
55785;DHT22;41709;52.536;5.688;2023-05-23T13:43:41;13.60;66.10
55785;DHT22;41709;52.536;5.688;2023-05-23T13:46:07;13.60;66.40
55785;DHT22;41709;52.536;5.688;2023-05-23T13:48:32;13.60;65.90
55785;DHT22;41709;52.536;5.688;2023-05-23T13:50:58;13.50;66.20
55785;DHT22;41709;52.536;5.688;2023-05-23T13:53:23;13.50;64.80
55785;DHT22;41709;52.536;5.688;2023-05-23T13:55:49;13.40;65.30
55785;DHT22;41709;52.536;5.688;2023-05-23T13:58:15;13.40;65.20
55785;DHT22;41709;52.536;5.688;2023-05-23T14:00:40;13.30;66.40
55785;DHT22;41709;52.536;5.688;2023-05-23T14:03:06;13.40;65.20
55785;DHT22;41709;52.536;5.688;2023-05-23T14:05:33;13.50;65.60
55785;DHT22;41709;52.536;5.688;2023-05-23T14:07:58;13.50;64.80
55785;DHT22;41709;52.536;5.688;2023-05-23T14:10:24;13.60;63.20
55785;DHT22;41709;52.536;5.688;2023-05-23T14:12:49;13.60;64.10
55785;DHT22;41709;52.536;5.688;2023-05-23T14:15:15;13.80;62.40
55785;DHT22;41709;52.536;5.688;2023-05-23T14:17:41;13.80;61.50
55785;DHT22;41709;52.536;5.688;2023-05-23T14:20:06;13.80;61.20
55785;DHT22;41709;52.536;5.688;2023-05-23T14:22:33;14.00;58.80
55785;DHT22;41709;52.536;5.688;2023-05-23T14:24:58;14.00;59.40
55785;DHT22;41709;52.536;5.688;2023-05-23T14:27:25;14.10;59.60
55785;DHT22;41709;52.536;5.688;2023-05-23T14:29:51;14.10;60.50
55785;DHT22;41709;52.536;5.688;2023-05-23T14:32:17;14.30;57.30
55785;DHT22;41709;52.536;5.688;2023-05-23T14:34:42;14.40;57.90
55785;DHT22;41709;52.536;5.688;2023-05-23T14:37:08;14.60;55.30
55785;DHT22;41709;52.536;5.688;2023-05-23T14:39:33;14.60;54.80
55785;DHT22;41709;52.536;5.688;2023-05-23T14:42:00;14.60;58.00
55785;DHT22;41709;52.536;5.688;2023-05-23T14:44:26;14.60;59.30
55785;DHT22;41709;52.536;5.688;2023-05-23T14:46:52;14.60;60.80
55785;DHT22;41709;52.536;5.688;2023-05-23T14:49:17;14.50;62.10
55785;DHT22;41709;52.536;5.688;2023-05-23T14:51:43;14.40;61.10
55785;DHT22;41709;52.536;5.688;2023-05-23T14:54:09;14.40;61.60
55785;DHT22;41709;52.536;5.688;2023-05-23T14:56:35;14.30;61.80
55785;DHT22;41709;52.536;5.688;2023-05-23T14:59:03;14.30;61.20
55785;DHT22;41709;52.536;5.688;2023-05-23T15:01:29;14.40;62.10
55785;DHT22;41709;52.536;5.688;2023-05-23T15:03:55;14.40;60.20
55785;DHT22;41709;52.536;5.688;2023-05-23T15:06:20;14.60;59.50
55785;DHT22;41709;52.536;5.688;2023-05-23T15:08:46;14.60;58.40
55785;DHT22;41709;52.536;5.688;2023-05-23T15:11:11;14.60;58.60
55785;DHT22;41709;52.536;5.688;2023-05-23T15:13:37;14.50;60.30
55785;DHT22;41709;52.536;5.688;2023-05-23T15:16:02;14.50;60.70
55785;DHT22;41709;52.536;5.688;2023-05-23T15:18:28;14.40;59.00
55785;DHT22;41709;52.536;5.688;2023-05-23T15:20:54;14.40;61.00
55785;DHT22;41709;52.536;5.688;2023-05-23T15:23:19;14.40;60.70
55785;DHT22;41709;52.536;5.688;2023-05-23T15:25:45;14.20;60.20
55785;DHT22;41709;52.536;5.688;2023-05-23T15:28:11;14.30;60.50
55785;DHT22;41709;52.536;5.688;2023-05-23T15:30:36;14.40;60.80
55785;DHT22;41709;52.536;5.688;2023-05-23T15:33:02;14.40;61.10
55785;DHT22;41709;52.536;5.688;2023-05-23T15:35:28;14.30;62.20
55785;DHT22;41709;52.536;5.688;2023-05-23T15:37:53;14.20;62.00
55785;DHT22;41709;52.536;5.688;2023-05-23T15:40:19;14.00;62.90
55785;DHT22;41709;52.536;5.688;2023-05-23T15:42:46;13.90;63.50
55785;DHT22;41709;52.536;5.688;2023-05-23T15:45:11;13.80;63.90
55785;DHT22;41709;52.536;5.688;2023-05-23T15:47:37;13.90;63.20
55785;DHT22;41709;52.536;5.688;2023-05-23T15:50:03;13.90;61.70